CST,Max TemperatureF,Mean TemperatureF,Min TemperatureF,Max Dew PointF,MeanDew PointF,Min DewpointF,Max Humidity, Mean Humidity, Min Humidity, Max Sea Level PressureIn, Mean Sea Level PressureIn, Min Sea Level PressureIn, Max VisibilityMiles, Mean VisibilityMiles, Min VisibilityMiles, Max Wind SpeedMPH, Mean Wind SpeedMPH, Max Gust SpeedMPH,PrecipitationIn, CloudCover, Events, WindDirDegrees
2013-2-1,43,35,26,31,16,5,82,50,23,30.53,30.42,30.27,10,10,10,15,9,23,0.00,0,,343
2013-2-2,56,41,26,45,34,19,100,85,41,30.35,30.22,30.13,10,6,0,21,5,24,0.02,2,Fog-Rain,211
2013-2-3,60,44,28,44,30,26,100,65,28,30.22,30.18,30.13,10,10,10,22,5,31,0.00,0,,289
2013-2-4,54,43,32,36,33,29,92,64,41,30.14,30.05,29.97,10,10,10,14,4,18,0.00,4,Rain,183
2013-2-5,61,51,41,49,44,36,100,84,63,30.08,30.03,29.95,10,6,0,8,1,,0.00,5,Fog-Rain,170
2013-2-6,68,54,40,54,43,39,100,81,35,30.22,30.11,30.04,10,4,0,7,1,,0.00,3,Fog,138
2013-2-7,64,58,51,53,50,43,94,80,63,30.08,29.99,29.90,10,7,3,12,7,,0.01,6,Rain,131
2013-2-8,55,46,37,54,48,32,100,89,47,30.30,30.07,29.94,10,7,0,18,8,24,0.02,7,Fog-Rain,352
2013-2-9,60,46,32,36,32,28,100,79,31,30.32,30.25,30.14,10,10,10,10,5,,0.00,1,,54
2013-2-10,60,52,43,61,52,36,100,91,59,30.14,29.98,29.87,10,8,2,20,10,24,0.91,8,Rain-Thunderstorm,164
2013-2-11,60,53,46,61,53,44,100,97,72,30.20,30.11,30.01,10,7,0,10,4,,0.10,4,Fog-Rain,289
2013-2-12,48,44,40,45,43,36,100,93,65,30.18,29.92,29.79,10,7,1,15,7,21,1.40,7,Rain-Thunderstorm,74
2013-2-13,46,44,41,46,41,35,100,87,71,30.09,29.90,29.76,10,9,3,21,6,24,0.01,8,,286
2013-2-14,59,44,28,42,34,28,100,87,39,30.13,30.10,30.06,10,6,0,10,2,,0.00,0,Fog,202
2013-2-15,59,45,31,40,34,28,99,68,37,30.18,30.14,30.10,10,10,10,16,6,17,0.00,3,,329
2013-2-16,45,35,24,28,20,14,81,52,31,30.31,30.22,30.15,10,10,10,22,10,31,0.00,2,Rain,309
2013-2-17,52,36,21,26,21,14,89,58,27,30.36,30.29,30.22,10,10,10,10,4,,0.00,3,,154
2013-2-18,63,52,40,50,43,33,99,66,38,30.25,30.01,29.90,10,9,2,26,15,39,0.48,6,Rain,179
2013-2-19,54,44,32,52,39,20,100,77,28,30.30,30.09,29.95,10,10,6,21,9,26,0.16,4,Rain,292
2013-2-20,43,36,28,32,23,14,92,61,33,30.35,30.25,30.17,10,10,10,12,4,,0.00,4,Rain,11
2013-2-21,53,44,35,54,42,22,100,83,36,30.17,29.89,29.82,10,7,1,17,8,,1.66,7,Rain-Thunderstorm,127
2013-2-22,64,54,44,55,49,41,100,94,45,30.07,29.98,29.91,10,5,0,10,1,,0.06,6,Fog-Rain,28
2013-2-23,55,47,39,48,41,34,95,82,56,30.02,29.99,29.92,10,10,10,12,8,,0.00,4,Rain,345
2013-2-24,65,49,33,36,33,31,90,58,29,30.09,30.01,29.89,10,10,10,10,4,,0.00,0,,45
2013-2-25,63,54,46,55,47,33,100,74,50,29.89,29.67,29.43,10,10,5,23,11,31,0.14,7,Rain,123
2013-2-26,55,49,43,55,42,32,100,78,59,29.89,29.58,29.42,10,10,2,22,13,28,0.13,7,Rain,232
2013-2-27,59,45,31,35,32,29,92,63,36,29.98,29.94,29.90,10,10,10,17,9,18,0.00,2,,262
2013-2-28,48,40,31,30,28,27,85,59,46,30.12,30.07,30.00,10,10,10,17,10,29,0.00,5,,318